createdAt,value
2018-08-07T00:00:37.971Z,99.90
2018-08-07T00:03:07.176Z,99.90
2018-08-07T00:05:35.433Z,99.90
2018-08-07T00:08:03.755Z,99.90
2018-08-07T00:10:32.093Z,99.90
2018-08-07T00:13:00.422Z,99.90
2018-08-07T00:15:28.971Z,99.90
2018-08-07T00:17:57.212Z,99.90
2018-08-07T00:22:53.585Z,99.90
2018-08-07T00:25:21.883Z,99.90
2018-08-07T00:27:50.181Z,99.90
2018-08-07T00:30:18.458Z,99.90
2018-08-07T00:32:46.973Z,99.90
2018-08-07T00:35:16.090Z,99.90
2018-08-07T00:37:44.972Z,99.90
2018-08-07T00:40:14.703Z,99.90
2018-08-07T00:42:43.572Z,99.90
2018-08-07T00:45:13.944Z,99.90
2018-08-07T00:47:42.321Z,99.90
2018-08-07T00:50:13.157Z,99.90
2018-08-07T00:52:41.529Z,99.90
2018-08-07T00:55:09.813Z,99.90
2018-08-07T00:57:38.064Z,99.90
2018-08-07T01:00:08.765Z,99.90
2018-08-07T01:02:37.298Z,99.90
2018-08-07T01:05:06.944Z,99.90
2018-08-07T01:07:35.185Z,99.90
2018-08-07T01:10:03.956Z,99.90
2018-08-07T01:12:32.246Z,99.90
2018-08-07T01:15:00.498Z,99.90
2018-08-07T01:17:28.878Z,99.90
2018-08-07T01:19:57.165Z,99.90
2018-08-07T01:22:25.885Z,99.90
2018-08-07T01:24:54.157Z,99.90
2018-08-07T01:27:22.477Z,99.90
2018-08-07T01:29:50.713Z,99.90
2018-08-07T01:32:18.959Z,99.90
2018-08-07T01:34:47.277Z,99.90
2018-08-07T01:37:15.538Z,99.90
2018-08-07T01:39:43.837Z,99.90
2018-08-07T01:42:12.089Z,99.90
2018-08-07T01:44:40.355Z,99.90
2018-08-07T01:47:08.620Z,99.90
2018-08-07T01:49:36.979Z,99.90
2018-08-07T01:52:05.208Z,99.90
2018-08-07T01:54:33.448Z,99.90
2018-08-07T01:57:01.816Z,99.90
2018-08-07T01:59:30.389Z,99.90
2018-08-07T02:01:58.621Z,99.90
2018-08-07T02:04:26.894Z,99.90
2018-08-07T02:06:55.149Z,99.90
2018-08-07T02:09:23.372Z,99.90
2018-08-07T02:11:52.146Z,99.90
2018-08-07T02:14:20.453Z,99.90
2018-08-07T02:16:48.691Z,99.90
2018-08-07T02:19:16.979Z,99.90
2018-08-07T02:21:45.213Z,99.90
2018-08-07T02:24:13.471Z,99.90
2018-08-07T02:26:41.768Z,99.90
2018-08-07T02:29:10.026Z,99.90
2018-08-07T02:31:38.249Z,99.90
2018-08-07T02:34:06.545Z,99.90
2018-08-07T02:36:34.839Z,99.90
2018-08-07T02:39:03.339Z,99.90
2018-08-07T02:41:31.545Z,99.90
2018-08-07T02:43:59.897Z,99.90
2018-08-07T02:46:28.102Z,99.90
2018-08-07T02:48:56.790Z,99.90
2018-08-07T02:51:25.132Z,99.90
2018-08-07T02:53:53.350Z,99.90
2018-08-07T02:56:21.658Z,99.90
2018-08-07T02:58:49.947Z,99.90
2018-08-07T03:01:18.459Z,99.90
2018-08-07T03:03:46.751Z,99.90
2018-08-07T03:06:15.066Z,99.90
2018-08-07T03:08:43.338Z,99.90
2018-08-07T03:11:11.567Z,99.90
2018-08-07T03:13:39.796Z,99.90
2018-08-07T03:16:08.118Z,99.90
2018-08-07T03:18:36.330Z,99.90
2018-08-07T03:21:04.669Z,99.90
2018-08-07T03:23:32.961Z,99.90
2018-08-07T03:26:01.225Z,99.90
2018-08-07T03:28:29.478Z,99.90
2018-08-07T03:30:57.821Z,99.90
2018-08-07T03:33:26.175Z,99.90
2018-08-07T03:35:54.459Z,99.90
2018-08-07T03:38:22.997Z,99.90
2018-08-07T03:40:51.293Z,99.90
2018-08-07T03:43:19.517Z,99.90
2018-08-07T03:45:47.769Z,99.90
2018-08-07T03:48:16.048Z,99.90
2018-08-07T03:50:44.344Z,99.90
2018-08-07T03:53:12.664Z,99.90
2018-08-07T03:55:40.835Z,99.90
2018-08-07T03:58:09.125Z,99.90
2018-08-07T04:00:42.765Z,99.90
2018-08-07T04:03:11.121Z,99.90
2018-08-07T04:05:39.329Z,99.90
2018-08-07T04:08:07.580Z,99.90
2018-08-07T04:10:35.860Z,99.90
2018-08-07T04:13:04.202Z,99.90
2018-08-07T04:15:32.485Z,99.90
2018-08-07T04:18:00.793Z,99.90
2018-08-07T04:20:29.426Z,99.90
2018-08-07T04:22:57.653Z,99.90
2018-08-07T04:25:25.921Z,99.90
2018-08-07T04:27:54.259Z,99.90
2018-08-07T04:30:22.565Z,99.90
2018-08-07T04:32:50.925Z,99.90
2018-08-07T04:35:19.150Z,99.90
2018-08-07T04:37:47.467Z,99.90
2018-08-07T04:40:15.745Z,99.90
2018-08-07T04:42:44.122Z,99.90
2018-08-07T04:45:13.763Z,99.90
2018-08-07T04:47:42.473Z,99.90
2018-08-07T04:50:10.826Z,99.90
2018-08-07T04:52:39.760Z,99.90
2018-08-07T04:55:09.239Z,99.90
2018-08-07T04:57:37.687Z,99.90
2018-08-07T05:00:11.134Z,99.90
2018-08-07T05:02:39.353Z,99.90
2018-08-07T05:05:07.965Z,99.90
2018-08-07T05:07:36.252Z,99.90
2018-08-07T05:10:06.620Z,99.90
2018-08-07T05:12:34.916Z,99.90
2018-08-07T05:15:03.206Z,99.90
2018-08-07T05:17:33.137Z,99.90
2018-08-07T05:20:01.397Z,99.90
2018-08-07T05:22:29.674Z,99.90
2018-08-07T05:24:57.962Z,99.90
2018-08-07T05:27:26.242Z,99.90
2018-08-07T05:29:54.739Z,99.90
2018-08-07T05:32:23.089Z,99.90
2018-08-07T05:34:51.365Z,99.90
2018-08-07T05:37:19.577Z,99.90
2018-08-07T05:39:47.849Z,99.90
2018-08-07T05:42:16.387Z,99.90
2018-08-07T05:44:44.613Z,99.90
2018-08-07T05:49:40.869Z,99.90
2018-08-07T05:52:09.120Z,99.90
2018-08-07T05:54:37.344Z,99.90
2018-08-07T05:57:05.633Z,99.90
2018-08-07T05:59:33.961Z,99.90
2018-08-07T06:04:30.202Z,99.90
2018-08-07T06:06:58.629Z,99.90
2018-08-07T06:09:26.906Z,99.90
2018-08-07T06:11:55.197Z,99.90
2018-08-07T06:14:23.418Z,99.90
2018-08-07T06:16:51.693Z,99.90
2018-08-07T06:19:20.036Z,99.90
2018-08-07T06:21:48.254Z,99.90
2018-08-07T06:24:16.609Z,99.90
2018-08-07T06:26:44.945Z,99.90
2018-08-07T06:29:13.215Z,99.90
2018-08-07T06:31:41.546Z,99.90
2018-08-07T06:34:09.867Z,99.90
2018-08-07T06:36:38.180Z,99.90
2018-08-07T06:39:07.612Z,99.90
2018-08-07T06:41:36.147Z,99.90
2018-08-07T06:44:04.629Z,99.90
2018-08-07T06:46:32.881Z,99.90
2018-08-07T06:49:01.154Z,99.90
2018-08-07T06:51:29.458Z,99.90
2018-08-07T06:53:57.810Z,99.90
2018-08-07T06:56:26.121Z,99.90
2018-08-07T06:58:57.448Z,99.90
2018-08-07T07:01:25.745Z,99.90
2018-08-07T07:03:54.754Z,99.90
2018-08-07T07:08:51.070Z,99.90
2018-08-07T07:11:20.013Z,99.90
2018-08-07T07:13:48.241Z,99.90
2018-08-07T07:16:16.636Z,99.90
2018-08-07T07:18:44.844Z,99.90
2018-08-07T07:21:13.118Z,99.90
2018-08-07T07:23:41.357Z,99.90
2018-08-07T07:26:09.702Z,99.90
2018-08-07T07:28:37.959Z,99.90
2018-08-07T07:31:06.641Z,99.90
2018-08-07T07:33:34.882Z,99.90
2018-08-07T07:36:03.090Z,99.90
2018-08-07T07:38:31.440Z,99.90
2018-08-07T07:40:59.726Z,99.90
2018-08-07T07:43:28.006Z,99.90
2018-08-07T07:45:56.272Z,99.90
2018-08-07T07:48:24.594Z,99.90
2018-08-07T07:50:52.833Z,99.90
2018-08-07T07:53:21.114Z,99.90
2018-08-07T07:55:49.343Z,99.90
2018-08-07T07:58:17.646Z,99.90
2018-08-07T08:00:45.914Z,99.90
2018-08-07T08:03:14.258Z,99.90
2018-08-07T08:05:42.569Z,99.90
2018-08-07T08:08:10.807Z,99.90
2018-08-07T08:10:39.082Z,99.90
2018-08-07T08:13:07.322Z,99.90
2018-08-07T08:15:35.602Z,99.90
2018-08-07T08:18:04.255Z,99.90
2018-08-07T08:20:32.601Z,99.90
2018-08-07T08:23:00.861Z,99.90
2018-08-07T08:25:29.114Z,99.90
2018-08-07T08:27:57.351Z,99.90
2018-08-07T08:30:25.597Z,99.90
2018-08-07T08:32:53.871Z,99.90
2018-08-07T08:35:22.186Z,99.90
2018-08-07T08:37:50.620Z,99.90
2018-08-07T08:40:20.514Z,99.90
2018-08-07T08:42:48.833Z,99.90
2018-08-07T08:45:20.488Z,99.90
2018-08-07T08:47:50.099Z,99.90
2018-08-07T08:50:19.450Z,99.90
2018-08-07T08:52:47.666Z,99.90
2018-08-07T08:55:15.925Z,99.90
2018-08-07T08:57:44.613Z,99.90
2018-08-07T09:00:16.875Z,99.90
2018-08-07T09:02:45.877Z,99.90
2018-08-07T09:05:14.204Z,99.90
2018-08-07T09:07:43.366Z,99.90
2018-08-07T09:10:18.506Z,99.90
2018-08-07T09:12:46.912Z,99.90
2018-08-07T09:15:15.521Z,99.90
2018-08-07T09:17:43.809Z,99.90
2018-08-07T09:20:25.086Z,99.90
2018-08-07T09:22:53.628Z,99.90
2018-08-07T09:25:22.862Z,99.90
2018-08-07T09:27:51.095Z,99.90
2018-08-07T09:30:21.690Z,99.90
2018-08-07T09:32:50.807Z,99.90
2018-08-07T09:35:20.110Z,99.90
2018-08-07T09:37:48.409Z,99.90
2018-08-07T09:40:17.997Z,99.90
2018-08-07T09:42:47.796Z,99.90
2018-08-07T09:45:18.937Z,99.90
2018-08-07T09:47:47.445Z,99.90
2018-08-07T09:50:16.879Z,99.90
2018-08-07T09:52:45.969Z,99.90
2018-08-07T09:55:14.262Z,99.90
2018-08-07T09:57:42.889Z,99.90
2018-08-07T10:00:20.897Z,99.90
2018-08-07T10:02:51.035Z,99.90
2018-08-07T10:05:20.046Z,99.90
2018-08-07T10:07:48.734Z,99.90
2018-08-07T10:10:17.053Z,99.90
2018-08-07T10:12:45.734Z,99.90
2018-08-07T10:15:14.337Z,99.90
2018-08-07T10:17:42.629Z,99.90
2018-08-07T10:20:11.278Z,99.90
2018-08-07T10:22:40.306Z,99.90
2018-08-07T10:25:10.651Z,99.90
2018-08-07T10:27:40.429Z,99.90
2018-08-07T10:30:11.605Z,99.90
2018-08-07T10:32:40.597Z,99.90
2018-08-07T10:35:09.429Z,99.90
2018-08-07T10:37:37.661Z,99.90
2018-08-07T10:40:08.085Z,99.90
2018-08-07T10:42:36.522Z,99.90
2018-08-07T10:45:06.710Z,99.90
2018-08-07T10:47:34.995Z,99.90
2018-08-07T10:50:04.603Z,99.90
2018-08-07T10:52:32.910Z,99.90
2018-08-07T10:55:01.242Z,99.90
2018-08-07T10:57:29.560Z,99.90
2018-08-07T10:59:57.846Z,99.90
2018-08-07T11:02:26.063Z,99.90
2018-08-07T11:04:54.401Z,99.90
2018-08-07T11:09:51.101Z,99.90
2018-08-07T11:12:19.955Z,99.90
2018-08-07T11:17:16.261Z,99.90
2018-08-07T11:19:44.481Z,98.80
2018-08-07T11:22:12.702Z,99.60
2018-08-07T11:24:40.931Z,98.20
2018-08-07T11:27:09.254Z,98.30
2018-08-07T11:29:37.530Z,96.30
2018-08-07T11:32:05.809Z,96.80
2018-08-07T11:34:34.084Z,99.90
2018-08-07T11:37:02.420Z,96.30
2018-08-07T11:39:30.743Z,94.40
2018-08-07T11:41:59.013Z,95.20
2018-08-07T11:44:27.332Z,95.10
2018-08-07T11:46:55.632Z,94.50
2018-08-07T11:49:23.846Z,95.10
2018-08-07T11:51:52.136Z,95.30
2018-08-07T11:54:20.359Z,93.90
2018-08-07T11:56:48.675Z,93.90
2018-08-07T11:59:19.014Z,94.80
2018-08-07T12:01:47.954Z,94.90
2018-08-07T12:04:16.221Z,94.50
2018-08-07T12:06:44.852Z,94.60
2018-08-07T12:09:13.105Z,94.80
2018-08-07T12:11:41.437Z,95.40
2018-08-07T12:14:10.065Z,95.10
2018-08-07T12:16:38.421Z,96.00
2018-08-07T12:19:06.720Z,96.30
2018-08-07T12:21:35.010Z,94.90
2018-08-07T12:24:03.357Z,95.60
2018-08-07T12:26:31.742Z,96.80
2018-08-07T12:28:59.962Z,96.90
2018-08-07T12:31:28.336Z,98.10
2018-08-07T12:33:56.608Z,97.70
2018-08-07T12:36:24.857Z,97.40
2018-08-07T12:38:53.221Z,97.40
2018-08-07T12:41:21.592Z,97.40
2018-08-07T12:43:49.834Z,97.60
2018-08-07T12:46:18.094Z,97.40
2018-08-07T12:48:46.348Z,97.20
2018-08-07T12:51:14.705Z,96.90
2018-08-07T12:53:42.990Z,97.50
2018-08-07T12:56:11.301Z,97.10
2018-08-07T12:58:39.509Z,96.90
2018-08-07T13:01:07.916Z,96.80
2018-08-07T13:03:36.257Z,96.80
2018-08-07T13:06:04.512Z,96.80
2018-08-07T13:08:32.851Z,96.40
2018-08-07T13:11:01.137Z,96.00
2018-08-07T13:13:29.414Z,96.20
2018-08-07T13:15:57.700Z,96.00
2018-08-07T13:18:26.010Z,96.40
2018-08-07T13:20:54.229Z,96.30
2018-08-07T13:23:22.505Z,96.60
2018-08-07T13:25:50.829Z,96.70
2018-08-07T13:28:19.063Z,96.80
2018-08-07T13:30:47.375Z,96.30
2018-08-07T13:33:15.725Z,96.00
2018-08-07T13:35:44.037Z,96.30
2018-08-07T13:38:12.297Z,96.40
2018-08-07T13:40:40.589Z,96.80
2018-08-07T13:43:08.823Z,95.60
2018-08-07T13:45:37.085Z,95.80
2018-08-07T13:48:05.746Z,96.30
2018-08-07T13:50:34.080Z,95.90
2018-08-07T13:53:02.383Z,95.80
2018-08-07T13:55:30.713Z,96.50
2018-08-07T13:57:59.010Z,95.70
2018-08-07T14:00:28.381Z,95.60
2018-08-07T14:02:57.446Z,96.20
2018-08-07T14:05:26.548Z,96.30
2018-08-07T14:07:55.849Z,96.00
2018-08-07T14:10:25.556Z,97.10
2018-08-07T14:12:53.860Z,96.10
2018-08-07T14:15:23.216Z,96.50
2018-08-07T14:17:51.441Z,96.70
2018-08-07T14:20:19.912Z,96.70
2018-08-07T14:22:48.350Z,96.50
2018-08-07T14:25:27.097Z,96.80
2018-08-07T14:27:55.382Z,97.00
2018-08-07T14:30:25.997Z,96.80
2018-08-07T14:32:54.359Z,97.30
2018-08-07T14:37:51.067Z,97.10
2018-08-07T14:40:21.765Z,96.70
2018-08-07T14:42:50.784Z,97.30
2018-08-07T14:45:21.242Z,97.00
2018-08-07T14:47:50.406Z,97.00
2018-08-07T14:50:20.086Z,97.50
2018-08-07T14:52:48.371Z,97.00
2018-08-07T14:55:16.869Z,97.40
2018-08-07T14:57:45.310Z,97.00
2018-08-07T15:00:15.758Z,97.00
2018-08-07T15:02:44.317Z,97.60
2018-08-07T15:05:12.665Z,97.60
2018-08-07T15:07:40.897Z,97.30
2018-08-07T15:10:13.273Z,97.90
2018-08-07T15:12:41.562Z,97.90
2018-08-07T15:15:14.096Z,97.80
2018-08-07T15:17:42.483Z,97.70
2018-08-07T15:20:12.527Z,97.50
2018-08-07T15:22:40.801Z,97.50
2018-08-07T15:25:12.015Z,97.90
2018-08-07T15:27:40.271Z,97.90
2018-08-07T15:30:13.943Z,98.10
2018-08-07T15:32:42.479Z,97.70
2018-08-07T15:35:10.820Z,98.20
2018-08-07T15:37:39.166Z,98.20
2018-08-07T15:40:08.262Z,97.80
2018-08-07T15:42:36.489Z,98.30
2018-08-07T15:45:05.605Z,98.00
2018-08-07T15:47:34.352Z,98.00
2018-08-07T15:50:02.650Z,98.20
2018-08-07T15:52:30.903Z,97.90
2018-08-07T15:54:59.241Z,98.00
2018-08-07T15:57:27.515Z,98.20
2018-08-07T15:59:55.801Z,97.30
2018-08-07T16:02:24.364Z,97.10
2018-08-07T16:04:52.616Z,97.20
2018-08-07T16:07:21.003Z,97.20
2018-08-07T16:09:49.297Z,96.90
2018-08-07T16:12:17.593Z,97.10
2018-08-07T16:14:45.872Z,96.80
2018-08-07T16:17:14.134Z,97.20
2018-08-07T16:19:42.590Z,97.10
2018-08-07T16:22:11.053Z,97.20
2018-08-07T16:24:39.621Z,97.50
2018-08-07T16:27:07.876Z,97.50
2018-08-07T16:29:36.299Z,97.00
2018-08-07T16:32:04.559Z,96.90
2018-08-07T16:34:32.778Z,96.90
2018-08-07T16:37:01.427Z,97.30
2018-08-07T16:39:29.654Z,97.60
2018-08-07T16:41:57.931Z,97.80
2018-08-07T16:44:26.312Z,97.60
2018-08-07T16:46:54.598Z,97.70
2018-08-07T16:49:23.290Z,98.20
2018-08-07T16:51:51.570Z,98.00
2018-08-07T16:56:47.879Z,98.30
2018-08-07T16:59:16.218Z,98.00
2018-08-07T17:01:44.850Z,98.40
2018-08-07T17:04:13.147Z,98.30
2018-08-07T17:06:41.417Z,98.50
2018-08-07T17:09:11.181Z,98.20
2018-08-07T17:11:40.245Z,98.00
2018-08-07T17:14:08.583Z,97.90
2018-08-07T17:16:36.885Z,98.40
2018-08-07T17:19:05.413Z,98.70
2018-08-07T17:21:33.689Z,99.10
2018-08-07T17:24:01.921Z,99.10
2018-08-07T17:26:30.189Z,99.20
2018-08-07T17:28:58.485Z,99.10
2018-08-07T17:31:26.807Z,99.50
2018-08-07T17:33:55.100Z,99.00
2018-08-07T17:36:23.380Z,99.20
2018-08-07T17:38:51.655Z,99.90
2018-08-07T17:41:20.030Z,99.90
2018-08-07T17:43:48.258Z,99.90
2018-08-07T17:46:16.575Z,99.90
2018-08-07T17:48:44.926Z,99.90
2018-08-07T17:51:13.241Z,99.90
2018-08-07T17:53:41.497Z,99.90
2018-08-07T17:56:09.782Z,99.90
2018-08-07T17:58:38.074Z,99.90
2018-08-07T18:01:06.414Z,99.90
2018-08-07T18:03:34.698Z,99.90
2018-08-07T18:06:02.967Z,99.90
2018-08-07T18:08:31.197Z,99.90
2018-08-07T18:10:59.397Z,99.90
2018-08-07T18:13:27.740Z,99.90
2018-08-07T18:15:56.054Z,99.90
2018-08-07T18:18:24.311Z,99.90
2018-08-07T18:20:52.614Z,99.90
2018-08-07T18:23:21.246Z,99.90
2018-08-07T18:25:49.570Z,99.90
2018-08-07T18:28:17.881Z,99.90
2018-08-07T18:30:46.158Z,99.90
2018-08-07T18:33:14.430Z,99.90
2018-08-07T18:35:42.746Z,99.90
2018-08-07T18:38:10.953Z,99.90
2018-08-07T18:40:39.221Z,99.90
2018-08-07T18:43:07.597Z,99.90
2018-08-07T18:45:35.870Z,99.90
2018-08-07T18:48:04.131Z,99.90
2018-08-07T18:50:32.383Z,99.90
2018-08-07T18:53:00.617Z,99.90
2018-08-07T18:55:29.275Z,99.90
2018-08-07T18:57:57.595Z,99.90
2018-08-07T19:00:26.082Z,99.90
2018-08-07T19:02:54.405Z,99.90
2018-08-07T19:05:23.805Z,99.90
2018-08-07T19:07:52.113Z,99.90
2018-08-07T19:10:20.386Z,99.90
2018-08-07T19:12:49.367Z,99.90
2018-08-07T19:15:18.648Z,99.90
2018-08-07T19:17:46.913Z,99.90
2018-08-07T19:22:44.759Z,99.90
2018-08-07T19:25:13.517Z,99.90
2018-08-07T19:27:42.182Z,99.90
2018-08-07T19:30:12.203Z,99.90
2018-08-07T19:32:40.766Z,99.90
2018-08-07T19:35:10.270Z,99.90
2018-08-07T19:37:38.536Z,99.90
2018-08-07T19:40:15.281Z,99.90
2018-08-07T19:42:44.221Z,99.90
2018-08-07T19:45:12.937Z,99.90
2018-08-07T19:47:41.629Z,99.90
2018-08-07T19:50:11.295Z,99.90
2018-08-07T19:52:39.698Z,99.90
2018-08-07T19:55:10.470Z,99.90
2018-08-07T19:57:38.767Z,99.90
2018-08-07T20:00:11.862Z,99.90
2018-08-07T20:02:40.149Z,99.90
2018-08-07T20:05:08.429Z,99.90
2018-08-07T20:07:36.763Z,99.90
2018-08-07T20:10:41.701Z,99.90
2018-08-07T20:13:09.955Z,99.90
2018-08-07T20:15:38.261Z,99.90
2018-08-07T20:18:06.634Z,99.90
2018-08-07T20:20:34.884Z,99.90
2018-08-07T20:23:03.101Z,99.90
2018-08-07T20:25:31.440Z,99.90
2018-08-07T20:27:59.689Z,99.90
2018-08-07T20:30:27.917Z,99.90
2018-08-07T20:32:57.335Z,99.90
2018-08-07T20:35:25.579Z,99.90
2018-08-07T20:37:54.654Z,99.90
2018-08-07T20:40:25.470Z,99.90
2018-08-07T20:42:54.829Z,99.90
2018-08-07T20:45:23.210Z,99.90
2018-08-07T20:47:51.737Z,99.90
2018-08-07T20:50:21.285Z,99.90
2018-08-07T20:52:49.729Z,99.90
2018-08-07T20:55:18.058Z,99.90
2018-08-07T20:57:46.334Z,99.90
2018-08-07T21:00:18.993Z,99.90
2018-08-07T21:02:47.596Z,99.90
2018-08-07T21:05:15.841Z,99.90
2018-08-07T21:07:44.084Z,99.90
2018-08-07T21:10:19.829Z,99.90
2018-08-07T21:12:48.089Z,99.90
2018-08-07T21:15:16.320Z,99.90
2018-08-07T21:17:44.524Z,99.90
2018-08-07T21:20:15.171Z,99.90
2018-08-07T21:22:43.587Z,99.90
2018-08-07T21:25:15.756Z,99.90
2018-08-07T21:27:44.446Z,99.90
2018-08-07T21:30:14.608Z,99.90
2018-08-07T21:32:42.953Z,99.90
2018-08-07T21:35:11.913Z,99.90
2018-08-07T21:37:40.583Z,99.90
2018-08-07T21:40:24.197Z,99.90
2018-08-07T21:42:53.939Z,99.90
2018-08-07T21:45:22.282Z,99.90
2018-08-07T21:47:50.642Z,99.90
2018-08-07T21:50:20.438Z,99.90
2018-08-07T21:52:48.673Z,99.90
2018-08-07T21:55:18.426Z,99.90
2018-08-07T21:57:46.813Z,99.90
2018-08-07T22:00:16.525Z,99.90
2018-08-07T22:02:45.345Z,99.90
2018-08-07T22:05:13.638Z,99.90
2018-08-07T22:07:41.915Z,99.90
2018-08-07T22:10:19.632Z,99.90
2018-08-07T22:12:48.037Z,99.90
2018-08-07T22:15:17.145Z,99.90
2018-08-07T22:17:45.445Z,99.90
2018-08-07T22:20:14.044Z,99.90
2018-08-07T22:22:48.922Z,99.90
2018-08-07T22:25:17.198Z,99.90
2018-08-07T22:27:45.441Z,99.90
2018-08-07T22:30:16.969Z,99.90
2018-08-07T22:32:45.287Z,99.90
2018-08-07T22:35:13.601Z,99.90
2018-08-07T22:37:42.274Z,99.90
2018-08-07T22:40:11.568Z,99.90
2018-08-07T22:42:39.891Z,99.90
2018-08-07T22:45:10.010Z,99.90
2018-08-07T22:47:38.474Z,99.90
2018-08-07T22:50:08.077Z,99.90
2018-08-07T22:52:36.396Z,99.90
2018-08-07T22:55:06.560Z,99.90
2018-08-07T22:57:34.781Z,99.90
2018-08-07T23:00:03.174Z,99.90
2018-08-07T23:02:31.370Z,99.90
2018-08-07T23:04:59.613Z,99.90
2018-08-07T23:07:27.957Z,99.90
2018-08-07T23:09:56.233Z,99.90
2018-08-07T23:12:24.491Z,99.90
2018-08-07T23:14:52.704Z,99.90
2018-08-07T23:17:20.993Z,99.90
2018-08-07T23:19:49.205Z,99.90
2018-08-07T23:22:17.478Z,99.90
2018-08-07T23:24:45.833Z,99.90
2018-08-07T23:27:14.123Z,99.90
2018-08-07T23:29:42.347Z,99.90
2018-08-07T23:32:10.600Z,99.90
2018-08-07T23:34:39.146Z,99.90
2018-08-07T23:37:07.417Z,99.90
2018-08-07T23:39:35.669Z,99.90
2018-08-07T23:42:03.876Z,99.90
2018-08-07T23:44:32.066Z,99.90
2018-08-07T23:47:00.342Z,99.90
2018-08-07T23:49:28.569Z,99.90
2018-08-07T23:51:56.771Z,99.90
2018-08-07T23:54:25.005Z,99.90
2018-08-07T23:56:53.301Z,99.90
2018-08-07T23:59:21.513Z,99.90
